Time;durP1;ratioP1;P1;durP2;ratioP2;P2;SDS_P1;SDS_P2;PMS_P1;PMS_P2;Temp;Humidity;BMP_temperature;BMP_pressure;BME280_temperature;BME280_humidity;BME280_pressure;Samples;Min_cycle;Max_cycle;Signal;HPM_P1;HPM_P2
2022/09/07 00:02:13;;;;;;;;;;;;;;;11.31;87.48;97747.02;110066;1248;59692;-68
2022/09/07 00:04:43;;;;;;;4.60;4.10;;;;;;;11.32;90.02;97748.32;110084;1248;59651;-68
2022/09/07 00:07:13;;;;;;;5.40;4.30;;;;;;;11.30;89.65;97753.03;110135;1248;69984;-68
2022/09/07 00:09:44;;;;;;;7.50;5.40;;;;;;;11.27;89.66;97754.59;110092;1248;68613;-68
2022/09/07 00:12:14;;;;;;;;;;;;;;;11.23;91.66;97750.52;110172;1247;69527;-67
2022/09/07 00:14:44;;;;;;;6.80;5.80;;;;;;;11.17;91.52;97747.73;110289;1248;59764;-68
2022/09/07 00:17:14;;;;;;;6.80;5.30;;;;;;;11.15;90.10;97742.02;110165;1248;59697;-68
2022/09/07 00:19:45;;;;;;;6.00;5.00;;;;;;;11.13;90.04;97745.58;109889;1250;71339;-67
2022/09/07 00:22:15;;;;;;;5.10;4.60;;;;;;;11.13;90.32;97745.22;110225;1249;69521;-67
2022/09/07 00:24:45;;;;;;;6.30;4.60;;;;;;;11.14;90.72;97741.73;110087;1247;68727;-67
2022/09/07 00:27:15;;;;;;;6.10;4.50;;;;;;;11.14;90.59;97740.35;109854;1250;59707;-66
2022/09/07 00:29:44;;;;;;;6.60;4.70;;;;;;;11.14;91.64;97739.27;108533;1248;1963157;-67
2022/09/07 00:32:14;;;;;;;7.10;5.60;;;;;;;11.13;90.99;97740.86;110097;1248;71461;-69
2022/09/07 00:34:44;;;;;;;6.90;5.80;;;;;;;11.12;90.16;97740.06;110055;1250;69381;-67
2022/09/07 00:37:13;;;;;;;6.70;6.00;;;;;;;11.12;90.68;97736.43;110017;1247;69438;-67
2022/09/07 00:39:43;;;;;;;6.50;5.10;;;;;;;11.12;90.19;97736.40;110048;1250;59714;-68
2022/09/07 00:42:18;;;;;;;5.20;4.10;;;;;;;11.13;89.33;97737.98;110096;1247;59685;-67
2022/09/07 00:45:06;;;;;;;5.20;4.70;;;;;;;11.13;88.80;97735.11;110196;1247;71595;-70
2022/09/07 00:48:04;;;;;;;6.90;5.30;;;;;;;11.17;88.74;97739.05;109883;1250;68601;-69
2022/09/07 00:50:41;;;;;;;5.20;4.00;;;;;;;11.22;89.11;97740.63;109749;1250;68530;-67
2022/09/07 00:53:21;;;;;;;5.00;4.20;;;;;;;11.24;89.97;97742.27;109666;1250;59720;-68
2022/09/07 00:55:53;;;;;;;5.50;4.30;;;;;;;11.25;89.02;97748.64;109971;1248;59754;-67
2022/09/07 00:58:23;;;;;;;6.00;5.10;;;;;;;11.27;88.90;97740.30;109978;1247;71651;-70
2022/09/07 01:00:54;;;;;;;5.80;5.20;;;;;;;11.31;88.17;97736.02;110001;1248;68466;-68
2022/09/07 01:03:32;;;;;;;7.60;5.90;;;;;;;11.35;88.62;97734.48;110040;1248;69538;-67
2022/09/07 01:06:14;;;;;;;5.80;5.30;;;;;;;11.39;90.10;97734.70;110076;1249;59779;-67
2022/09/07 01:08:48;;;;;;;8.00;6.90;;;;;;;11.41;90.28;97733.73;110007;1250;59630;-69
2022/09/07 01:11:21;;;;;;;6.50;5.70;;;;;;;11.37;89.51;97731.58;110074;1247;71518;-68
2022/09/07 01:13:53;;;;;;;6.30;4.70;;;;;;;11.32;88.80;97726.66;110166;1247;69214;-68
2022/09/07 01:16:44;;;;;;;8.20;6.30;;;;;;;11.32;89.58;97728.58;110019;1248;69426;-70
2022/09/07 01:19:25;;;;;;;7.80;6.80;;;;;;;11.31;89.74;97726.02;110008;1248;59718;-67
2022/09/07 01:22:40;;;;;;;6.10;5.10;;;;;;;11.30;89.90;97728.55;109970;1248;59676;-67
2022/09/07 01:25:13;;;;;;;7.90;5.60;;;;;;;11.30;90.67;97731.92;109864;1250;70580;-68
2022/09/07 01:28:02;;;;;;;8.70;6.30;;;;;;;11.30;92.30;97731.88;109916;1250;68638;-69
2022/09/07 01:30:36;;;;;;;8.70;6.10;;;;;;;11.31;92.79;97727.62;110010;1250;67832;-68
2022/09/07 01:33:31;;;;;;;5.90;5.30;;;;;;;11.34;92.05;97729.67;110037;1247;59675;-70
2022/09/07 01:36:22;;;;;;;7.00;5.60;;;;;;;11.39;91.12;97729.11;110077;1248;59766;-67
2022/09/07 01:38:58;;;;;;;6.10;5.10;;;;;;;11.44;89.90;97724.08;110071;1248;70562;-68
2022/09/07 01:41:40;;;;;;;5.70;4.50;;;;;;;11.49;89.75;97721.07;110052;1247;68717;-70
2022/09/07 01:44:19;;;;;;;6.10;5.50;;;;;;;11.55;89.42;97713.51;110159;1248;69480;-66
2022/09/07 01:46:56;;;;;;;6.10;5.40;;;;;;;11.60;89.96;97710.88;109787;1250;59698;-67
2022/09/07 01:49:34;;;;;;;6.20;4.60;;;;;;;11.62;90.15;97708.49;110046;1247;59688;-67
2022/09/07 01:52:23;;;;;;;7.60;5.80;;;;;;;11.63;90.89;97708.05;110046;1248;71499;-67
2022/09/07 01:55:15;;;;;;;6.20;5.40;;;;;;;11.64;91.04;97704.98;110090;1248;68626;-68
2022/09/07 01:57:53;;;;;;;7.80;5.80;;;;;;;11.66;89.49;97703.59;110052;1250;68712;-67
2022/09/07 02:00:23;;;;;;;6.10;4.50;;;;;;;11.71;89.40;97707.77;109938;1247;59777;-67
2022/09/07 02:03:17;;;;;;;4.90;4.30;;;;;;;11.76;89.34;97703.79;110070;1247;59696;-67
2022/09/07 02:06:08;;;;;;;6.00;5.30;;;;;;;11.83;89.34;97704.36;110080;1247;70691;-67
2022/09/07 02:08:48;;;;;;;5.90;4.90;;;;;;;11.87;89.08;97702.11;110083;1248;68586;-68
2022/09/07 02:11:23;;;;;;;6.90;6.00;;;;;;;11.92;89.02;97697.06;110053;1248;68480;-68
2022/09/07 02:13:59;;;;;;;6.60;5.60;;;;;;;11.95;88.31;97689.35;110139;1247;59757;-69
2022/09/07 02:16:32;;;;;;;6.70;5.90;;;;;;;11.96;88.09;97690.61;110060;1248;59673;-68
2022/09/07 02:19:09;;;;;;;7.10;5.70;;;;;;;11.99;89.17;97692.89;110060;1247;71521;-68
2022/09/07 02:21:53;;;;;;;5.70;4.80;;;;;;;12.00;88.57;97697.33;110073;1247;68464;-68
2022/09/07 02:24:30;;;;;;;5.90;5.30;;;;;;;12.01;86.76;97687.80;110019;1248;69226;-70
2022/09/07 02:27:06;;;;;;;6.20;4.70;;;;;;;12.01;86.38;97682.41;110054;1247;59733;-67
2022/09/07 02:29:37;;;;;;;5.20;4.60;;;;;;;11.99;86.12;97676.83;110072;1247;59687;-67
2022/09/07 02:32:06;;;;;;;5.60;5.10;;;;;;;11.98;85.87;97679.34;110017;1247;71314;-67
2022/09/07 02:34:37;;;;;;;6.40;4.50;;;;;;;11.97;88.76;97682.89;110050;1247;68646;-68
2022/09/07 02:37:08;;;;;;;6.30;5.00;;;;;;;11.94;88.74;97686.06;109951;1248;68618;-68
2022/09/07 02:39:38;;;;;;;6.80;6.10;;;;;;;11.91;89.74;97681.25;110006;1247;59742;-66
2022/09/07 02:42:08;;;;;;;6.30;5.40;;;;;;;11.87;90.48;97674.54;110093;1245;59694;-67
2022/09/07 02:44:41;;;;;;;5.60;4.80;;;;;;;11.85;88.05;97662.11;110095;1247;71498;-67
2022/09/07 02:47:35;;;;;;;6.70;5.80;;;;;;;11.87;87.06;97659.17;110005;1247;68619;-69
2022/09/07 02:50:22;;;;;;;5.40;4.50;;;;;;;11.90;88.60;97662.97;109982;1248;69247;-69
2022/09/07 02:53:05;;;;;;;6.90;5.00;;;;;;;11.89;90.12;97659.88;110056;1247;59808;-69
2022/09/07 02:55:56;;;;;;;5.50;4.70;;;;;;;11.86;89.28;97659.90;110124;1247;59768;-68
2022/09/07 02:58:49;;;;;;;6.10;5.20;;;;;;;11.83;89.43;97662.77;110110;1248;71524;-70
2022/09/07 03:01:36;;;;;;;7.30;5.50;;;;;;;11.82;88.88;97667.02;110127;1247;69626;-70
2022/09/07 03:04:27;;;;;;;6.20;5.40;;;;;;;11.82;89.39;97677.00;110064;1247;69309;-68
2022/09/07 03:07:04;;;;;;;5.90;4.90;;;;;;;11.82;88.37;97683.29;110049;1247;59809;-67
2022/09/07 03:09:38;;;;;;;6.40;5.80;;;;;;;11.81;88.96;97686.31;110084;1248;59702;-67
2022/09/07 03:12:09;;;;;;;9.30;8.40;;;;;;;11.77;88.47;97689.55;110086;1247;70808;-67
2022/09/07 03:14:41;;;;;;;10.90;8.90;;;;;;;11.63;88.39;97687.44;110054;1247;68800;-67
2022/09/07 03:17:12;;;;;;;11.00;8.90;;;;;;;11.49;88.31;97688.42;109674;1250;69327;-70
2022/09/07 03:19:41;;;;;;;8.50;7.10;;;;;;;11.36;90.07;97692.85;109739;1250;59723;-69
2022/09/07 03:22:11;;;;;;;;;;;;;;;11.31;92.05;97689.95;110011;1247;59692;-67
2022/09/07 03:24:42;;;;;;;8.80;7.50;;;;;;;11.30;93.06;97689.15;110025;1247;70682;-67
2022/09/07 03:27:11;;;;;;;8.80;6.80;;;;;;;11.29;93.29;97686.91;110042;1247;69381;-67
2022/09/07 03:29:41;;;;;;;8.20;6.70;;;;;;;11.31;93.42;97685.20;110094;1247;69370;-70
2022/09/07 03:32:10;;;;;;;8.40;6.80;;;;;;;11.34;94.23;97682.90;110086;1247;59703;-70
2022/09/07 03:34:40;;;;;;;7.20;6.10;;;;;;;11.36;93.21;97683.33;110037;1247;59617;-69
2022/09/07 03:37:09;;;;;;;6.10;5.40;;;;;;;11.38;93.87;97681.08;110098;1247;70676;-67
2022/09/07 03:39:38;;;;;;;7.80;6.30;;;;;;;11.40;93.23;97686.96;110050;1247;69645;-68
2022/09/07 03:42:08;;;;;;;8.10;6.80;;;;;;;11.44;93.32;97693.02;110034;1248;68648;-68
2022/09/07 03:44:37;;;;;;;10.80;7.30;;;;;;;11.48;92.60;97695.48;110129;1248;59838;-67
2022/09/07 03:47:07;;;;;;;;;;;;;;;11.54;91.23;97697.50;110055;1247;59694;-70
2022/09/07 03:49:37;;;;;;;7.30;6.40;;;;;;;11.58;91.56;97698.08;110033;1248;71568;-70
2022/09/07 03:52:07;;;;;;;7.70;6.30;;;;;;;11.63;91.62;97695.42;110100;1247;69379;-70
2022/09/07 03:54:37;;;;;;;;;;;;;;;11.67;91.63;97695.34;110051;1247;68632;-67
2022/09/07 03:57:07;;;;;;;8.30;6.80;;;;;;;11.69;92.01;97689.80;110206;1247;59688;-67
2022/09/07 03:59:37;;;;;;;;;;;;;;;11.71;91.79;97694.20;110144;1247;59719;-69
2022/09/07 04:02:06;;;;;;;8.00;6.20;;;;;;;11.72;91.94;97692.55;110147;1248;71521;-68
2022/09/07 04:04:35;;;;;;;7.10;5.60;;;;;;;11.74;90.10;97694.52;110289;1247;69400;-67
2022/09/07 04:07:05;;;;;;;8.40;6.50;;;;;;;11.76;89.07;97694.94;110044;1247;69297;-68
2022/09/07 04:09:34;;;;;;;;;;;;;;;11.77;89.98;97699.89;110010;1247;59800;-67
2022/09/07 04:12:06;;;;;;;8.00;6.70;;;;;;;11.78;90.70;97711.34;109816;1248;59729;-67
2022/09/07 04:14:35;;;;;;;6.70;5.10;;;;;;;11.79;91.46;97713.41;110070;1247;71563;-68
2022/09/07 04:17:04;;;;;;;8.00;6.10;;;;;;;11.78;92.14;97714.80;110033;1247;69311;-67
2022/09/07 04:19:33;;;;;;;7.10;5.40;;;;;;;11.79;91.98;97714.77;110038;1247;68614;-69
2022/09/07 04:22:02;;;;;;;8.10;6.30;;;;;;;11.81;90.97;97710.41;110115;1245;59649;-67
2022/09/07 04:24:32;;;;;;;7.70;5.40;;;;;;;11.83;90.35;97713.94;110032;1248;59694;-68
2022/09/07 04:27:02;;;;;;;6.40;5.70;;;;;;;11.88;91.34;97714.45;109996;1247;71604;-68
2022/09/07 04:29:31;;;;;;;7.60;5.90;;;;;;;11.92;91.79;97720.95;109997;1248;68941;-68
2022/09/07 04:32:01;;;;;;;8.60;6.20;;;;;;;11.97;92.03;97719.70;110083;1247;68498;-70
2022/09/07 04:34:30;;;;;;;8.00;7.20;;;;;;;12.03;91.77;97717.39;110117;1248;59734;-67
2022/09/07 04:36:59;;;;;;;8.70;7.20;;;;;;;12.10;92.54;97715.27;110075;1247;59637;-67
2022/09/07 04:39:28;;;;;;;11.80;9.10;;;;;;;12.17;92.68;97710.89;110102;1248;70876;-67
2022/09/07 04:41:57;;;;;;;10.20;8.30;;;;;;;12.19;91.86;97712.65;110106;1247;68590;-67
2022/09/07 04:44:26;;;;;;;8.90;7.70;;;;;;;12.18;92.03;97713.26;110030;1247;69485;-68
2022/09/07 04:46:55;;;;;;;9.40;6.80;;;;;;;12.20;92.20;97707.92;110106;1247;59755;-69
2022/09/07 04:49:25;;;;;;;9.40;7.90;;;;;;;12.22;92.52;97706.36;110108;1247;59721;-67
2022/09/07 04:51:54;;;;;;;9.00;6.90;;;;;;;12.25;92.00;97704.36;110014;1247;71520;-70
2022/09/07 04:54:25;;;;;;;11.30;8.70;;;;;;;12.29;91.98;97705.99;110066;1248;69193;-69
2022/09/07 04:56:54;;;;;;;8.50;7.10;;;;;;;12.32;91.49;97705.79;110091;1248;67986;-67
2022/09/07 04:59:26;;;;;;;10.10;7.50;;;;;;;12.34;90.67;97707.53;110111;1247;59755;-67
2022/09/07 05:01:55;;;;;;;10.00;8.00;;;;;;;12.37;90.77;97701.39;110139;1247;59751;-67
2022/09/07 05:04:24;;;;;;;9.00;7.60;;;;;;;12.42;92.09;97703.63;110176;1247;70746;-68
2022/09/07 05:06:54;;;;;;;8.10;6.50;;;;;;;12.48;92.22;97708.45;110068;1247;68943;-68
2022/09/07 05:09:23;;;;;;;11.60;8.20;;;;;;;12.54;92.84;97708.15;110018;1247;68562;-67
2022/09/07 05:11:53;;;;;;;11.10;7.00;;;;;;;12.57;92.77;97708.97;110085;1247;59765;-68
2022/09/07 05:14:22;;;;;;;7.90;6.70;;;;;;;12.61;91.26;97705.30;109944;1247;58796;-67
2022/09/07 05:16:52;;;;;;;9.80;6.90;;;;;;;12.66;91.64;97706.17;110112;1247;70826;-70
2022/09/07 05:19:21;;;;;;;9.40;7.10;;;;;;;12.68;91.98;97705.81;110080;1248;69388;-68
2022/09/07 05:21:50;;;;;;;6.10;5.50;;;;;;;12.71;90.95;97708.02;110002;1247;67799;-68
2022/09/07 05:24:20;;;;;;;7.90;7.10;;;;;;;12.75;90.11;97707.37;110128;1247;59716;-68
2022/09/07 05:26:49;;;;;;;6.80;6.10;;;;;;;12.80;90.83;97707.54;110092;1247;59703;-69
2022/09/07 05:29:18;;;;;;;8.80;6.30;;;;;;;12.84;90.47;97704.11;110216;1247;70692;-69
2022/09/07 05:32:08;;;;;;;11.80;7.90;;;;;;;12.87;89.51;97707.17;110141;1247;68673;-67
2022/09/07 05:34:37;;;;;;;7.50;6.00;;;;;;;12.89;89.62;97705.64;109913;1248;69508;-67
2022/09/07 05:37:07;;;;;;;8.60;6.90;;;;;;;12.92;90.55;97710.65;110010;1247;59701;-68
2022/09/07 05:39:37;;;;;;;9.50;7.60;;;;;;;12.96;91.54;97715.42;110222;1247;59758;-71
2022/09/07 05:42:06;;;;;;;8.90;8.00;;;;;;;12.99;92.30;97714.99;110397;1247;71498;-68
2022/09/07 05:44:36;;;;;;;9.30;7.70;;;;;;;13.02;92.09;97721.56;110111;1247;69021;-70
2022/09/07 05:47:14;;;;;;;9.70;7.80;;;;;;;13.05;91.54;97723.46;110076;1247;68587;-68
2022/09/07 05:49:43;;;;;;;8.90;6.70;;;;;;;13.08;91.23;97727.07;110049;1247;59673;-68
2022/09/07 05:52:12;;;;;;;7.90;6.30;;;;;;;13.13;90.38;97722.42;110014;1247;60125;-68
2022/09/07 05:54:43;;;;;;;6.60;5.10;;;;;;;13.20;89.29;97715.61;110125;1247;71466;-69
2022/09/07 05:57:13;;;;;;;6.20;5.10;;;;;;;13.26;88.32;97717.14;110177;1247;69352;-68
2022/09/07 05:59:43;;;;;;;10.30;8.50;;;;;;;13.30;87.63;97714.16;110269;1247;69451;-68
2022/09/07 06:02:13;;;;;;;11.00;8.80;;;;;;;13.34;88.38;97721.21;110188;1247;59669;-68
2022/09/07 06:04:43;;;;;;;9.20;7.20;;;;;;;13.33;89.81;97729.89;110257;1247;59688;-68
2022/09/07 06:07:13;;;;;;;8.90;7.00;;;;;;;13.32;90.89;97735.69;110238;1247;71628;-67
2022/09/07 06:09:51;;;;;;;7.90;7.10;;;;;;;13.33;90.55;97738.62;110108;1247;68856;-67
2022/09/07 06:12:45;;;;;;;9.00;6.70;;;;;;;13.33;90.57;97743.73;110062;1247;69076;-67
2022/09/07 06:15:17;;;;;;;9.00;7.00;;;;;;;13.34;90.47;97742.21;110229;1247;59764;-68
2022/09/07 06:17:47;;;;;;;8.30;6.80;;;;;;;13.35;90.39;97738.32;109696;1250;59737;-67
2022/09/07 06:20:16;;;;;;;9.00;6.70;;;;;;;13.34;91.26;97743.07;110069;1247;70807;-67
2022/09/07 06:22:45;;;;;;;7.20;6.40;;;;;;;13.35;90.50;97741.26;110096;1247;69200;-69
2022/09/07 06:25:15;;;;;;;7.40;6.70;;;;;;;13.35;90.70;97738.48;109987;1247;69702;-71
2022/09/07 06:27:47;;;;;;;7.80;6.20;;;;;;;13.36;89.31;97749.61;110088;1247;59745;-70
2022/09/07 06:30:16;;;;;;;6.80;5.40;;;;;;;13.35;88.48;97758.03;110129;1247;59745;-71
2022/09/07 06:32:46;;;;;;;9.00;7.40;;;;;;;13.35;90.20;97758.26;110073;1247;70581;-69
2022/09/07 06:35:15;;;;;;;8.30;6.60;;;;;;;13.33;91.98;97755.26;110065;1247;69503;-71
2022/09/07 06:37:44;;;;;;;7.30;5.70;;;;;;;13.32;92.17;97760.96;110157;1247;69307;-71
2022/09/07 06:40:14;;;;;;;7.30;5.50;;;;;;;13.33;91.95;97762.46;110077;1247;59767;-71
2022/09/07 06:42:44;;;;;;;8.60;5.80;;;;;;;13.37;91.27;97766.52;110200;1246;59692;-71
2022/09/07 06:45:15;;;;;;;7.80;7.00;;;;;;;13.39;93.30;97768.04;110219;1249;71682;-70
2022/09/07 06:47:45;;;;;;;8.80;7.60;;;;;;;13.41;93.44;97772.29;110122;1247;69185;-69
2022/09/07 06:50:16;;;;;;;10.00;7.50;;;;;;;13.43;94.87;97775.44;110135;1247;68718;-71
2022/09/07 06:52:44;;;;;;;9.10;7.80;;;;;;;13.46;94.37;97773.63;110178;1247;59783;-71
2022/09/07 06:55:42;;;;;;;8.80;7.30;;;;;;;13.50;95.48;97780.66;109977;1247;59633;-70
2022/09/07 06:58:11;;;;;;;6.60;5.90;;;;;;;13.54;93.86;97789.63;110150;1247;71550;-68
2022/09/07 07:00:40;;;;;;;10.40;6.60;;;;;;;13.58;93.10;97790.59;109822;1247;68608;-71
2022/09/07 07:03:09;;;;;;;7.60;6.10;;;;;;;13.59;92.79;97795.23;110147;1247;69288;-69
2022/09/07 07:05:39;;;;;;;7.70;6.50;;;;;;;13.59;91.58;97805.74;110140;1247;59895;-70
2022/09/07 07:08:08;;;;;;;8.10;6.20;;;;;;;13.58;91.59;97810.33;109847;1247;59707;-71
2022/09/07 07:10:38;;;;;;;11.10;9.30;;;;;;;13.57;91.82;97813.61;110057;1247;71467;-68
2022/09/07 07:13:07;;;;;;;11.20;9.40;;;;;;;13.53;91.01;97815.61;110097;1247;69391;-67
2022/09/07 07:15:37;;;;;;;7.30;6.60;;;;;;;13.48;91.36;97814.30;109822;1247;68481;-70
2022/09/07 07:18:07;;;;;;;9.20;7.80;;;;;;;13.46;91.08;97810.05;110133;1247;59719;-69
2022/09/07 07:20:49;;;;;;;6.60;5.90;;;;;;;13.47;90.77;97812.77;110111;1247;59762;-70
2022/09/07 07:23:18;;;;;;;9.30;7.70;;;;;;;13.48;91.09;97808.97;110016;1247;71326;-68
2022/09/07 07:25:47;;;;;;;11.20;8.00;;;;;;;13.51;93.84;97807.58;110034;1246;68620;-67
2022/09/07 07:28:17;;;;;;;9.50;7.60;;;;;;;13.55;94.82;97804.63;110020;1248;68609;-67
2022/09/07 07:31:07;;;;;;;7.80;7.00;;;;;;;13.59;94.65;97807.83;110023;1248;59701;-68
2022/09/07 07:33:42;;;;;;;8.00;7.10;;;;;;;13.59;94.03;97805.85;109990;1248;59742;-69
2022/09/07 07:36:15;;;;;;;9.30;7.90;;;;;;;13.64;93.28;97808.50;110006;1247;70975;-68
2022/09/07 07:38:46;;;;;;;10.50;8.50;;;;;;;13.65;93.33;97809.48;109851;1247;69244;-69
2022/09/07 07:41:31;;;;;;;8.80;7.30;;;;;;;13.67;93.79;97809.11;110039;1247;68701;-70
2022/09/07 07:44:21;;;;;;;9.20;7.70;;;;;;;13.69;93.69;97812.43;109994;1247;59754;-68
2022/09/07 07:46:51;;;;;;;9.00;8.00;;;;;;;13.73;94.43;97810.04;110052;1247;59757;-68
2022/09/07 07:49:20;;;;;;;10.00;7.90;;;;;;;13.77;93.90;97811.63;110023;1247;71488;-70
2022/09/07 07:51:49;;;;;;;7.20;6.00;;;;;;;13.82;93.15;97810.58;110032;1247;68570;-68
2022/09/07 07:54:38;;;;;;;7.30;6.50;;;;;;;13.88;91.80;97818.71;109962;1247;68649;-69
2022/09/07 07:57:07;;;;;;;7.60;6.80;;;;;;;13.92;91.01;97822.38;110004;1247;59754;-68
2022/09/07 07:59:35;;;;;;;8.00;7.10;;;;;;;13.94;91.88;97824.45;110021;1247;59665;-67
2022/09/07 08:02:07;;;;;;;10.40;7.10;;;;;;;13.98;92.64;97819.38;110023;1247;70819;-70
2022/09/07 08:04:36;;;;;;;6.40;5.50;;;;;;;14.00;92.56;97816.98;110041;1247;69339;-68
2022/09/07 08:07:06;;;;;;;6.60;5.80;;;;;;;14.03;91.29;97814.45;109992;1247;68638;-68
2022/09/07 08:09:41;;;;;;;9.40;7.10;;;;;;;14.04;90.59;97808.81;110038;1247;59741;-68
2022/09/07 08:12:15;;;;;;;8.80;6.60;;;;;;;14.04;90.67;97806.69;110082;1247;59673;-68
2022/09/07 08:14:46;;;;;;;7.90;7.10;;;;;;;14.04;90.04;97804.45;110078;1247;71351;-67
2022/09/07 08:17:16;;;;;;;6.90;6.10;;;;;;;14.05;90.85;97802.59;110088;1247;69217;-67
2022/09/07 08:19:45;;;;;;;;;;;;;;;14.06;92.27;97800.59;110072;1247;68686;-68
2022/09/07 08:22:14;;;;;;;10.30;8.30;;;;;;;14.11;91.98;97794.38;110057;1247;59763;-70
2022/09/07 08:24:43;;;;;;;10.30;7.60;;;;;;;14.20;90.53;97795.35;110049;1247;59692;-68
2022/09/07 08:27:12;;;;;;;6.90;5.80;;;;;;;14.28;89.01;97792.26;110032;1247;70733;-68
2022/09/07 08:29:41;;;;;;;6.90;5.80;;;;;;;14.33;88.12;97792.80;110058;1247;68773;-69
2022/09/07 08:32:10;;;;;;;7.40;6.70;;;;;;;14.39;87.51;97795.11;110042;1247;70126;-70
2022/09/07 08:34:39;;;;;;;6.70;6.00;;;;;;;14.49;87.50;97795.35;110097;1247;59757;-69
2022/09/07 08:37:08;;;;;;;7.60;5.90;;;;;;;14.64;87.44;97790.45;110068;1247;59681;-68
2022/09/07 08:39:37;;;;;;;7.30;6.60;;;;;;;14.80;86.82;97787.66;110093;1247;70762;-67
2022/09/07 08:42:15;;;;;;;6.10;5.40;;;;;;;14.94;86.27;97792.99;110097;1247;69505;-69
2022/09/07 08:44:59;;;;;;;6.60;5.90;;;;;;;15.07;87.69;97795.37;110076;1247;69398;-69
2022/09/07 08:47:45;;;;;;;5.90;5.30;;;;;;;15.27;88.12;97792.80;110051;1247;59679;-70
2022/09/07 08:50:27;;;;;;;6.00;4.60;;;;;;;15.46;86.25;97794.98;110099;1247;59682;-67
2022/09/07 08:53:07;;;;;;;7.70;6.10;;;;;;;15.66;85.68;97794.11;110159;1247;71596;-65
2022/09/07 08:55:40;;;;;;;6.00;5.30;;;;;;;15.85;86.19;97798.44;110148;1247;67819;-68
2022/09/07 08:58:15;;;;;;;7.30;5.40;;;;;;;16.12;84.54;97800.67;110042;1248;69424;-70
2022/09/07 09:01:34;;;;;;;5.40;4.90;;;;;;;16.45;83.38;97799.27;110011;1247;59673;-69
2022/09/07 09:04:13;;;;;;;5.40;4.80;;;;;;;16.85;80.99;97790.67;110061;1247;59681;-70
2022/09/07 09:07:12;;;;;;;6.20;5.00;;;;;;;17.28;79.23;97789.98;110056;1247;70842;-70
2022/09/07 09:09:53;;;;;;;5.60;4.90;;;;;;;17.57;77.57;97789.78;110027;1247;69330;-70
2022/09/07 09:12:54;;;;;;;6.00;5.40;;;;;;;17.92;77.19;97785.23;110080;1247;68531;-70
2022/09/07 09:15:29;;;;;;;6.10;4.90;;;;;;;18.28;76.57;97779.05;110090;1247;59697;-71
2022/09/07 09:17:58;;;;;;;6.00;5.00;;;;;;;18.54;74.48;97777.70;110052;1247;59677;-70
2022/09/07 09:20:52;;;;;;;5.20;4.70;;;;;;;18.70;71.78;97775.03;110128;1247;70582;-70
2022/09/07 09:23:25;;;;;;;5.80;5.20;;;;;;;19.02;72.04;97776.10;110084;1247;67472;-70
2022/09/07 09:26:00;;;;;;;4.50;4.10;;;;;;;19.30;66.47;97778.36;110053;1247;68828;-70
2022/09/07 09:28:29;;;;;;;5.30;4.50;;;;;;;19.88;70.42;97785.03;110124;1247;59684;-69
2022/09/07 09:31:00;;;;;;;5.10;4.40;;;;;;;20.30;65.17;97784.46;110067;1247;59712;-69
2022/09/07 09:33:28;;;;;;;5.10;4.40;;;;;;;20.60;65.45;97786.22;110093;1247;70617;-69
2022/09/07 09:36:01;;;;;;;5.50;5.00;;;;;;;20.96;65.04;97781.13;110039;1247;68631;-70
2022/09/07 09:38:35;;;;;;;5.60;4.80;;;;;;;20.83;62.73;97780.91;110068;1247;69368;-70
2022/09/07 09:41:13;;;;;;;5.60;5.00;;;;;;;20.87;63.21;97784.49;110069;1247;59776;-70
2022/09/07 09:43:54;;;;;;;6.00;5.10;;;;;;;20.61;60.67;97787.73;110066;1247;59724;-69
2022/09/07 09:46:33;;;;;;;6.30;5.10;;;;;;;20.65;61.80;97792.09;110067;1247;70739;-70
2022/09/07 09:49:12;;;;;;;;;;;;;;;21.26;60.93;97791.48;110091;1247;69422;-70
2022/09/07 09:51:46;;;;;;;4.50;3.80;;;;;;;22.19;59.16;97790.16;110073;1247;68502;-69
2022/09/07 09:54:42;;;;;;;4.60;4.00;;;;;;;22.69;56.41;97788.72;110033;1247;59733;-69
2022/09/07 09:57:15;;;;;;;5.30;4.50;;;;;;;22.70;55.22;97788.36;110083;1247;59751;-69
2022/09/07 10:00:00;;;;;;;6.50;5.20;;;;;;;21.95;55.39;97786.86;110106;1247;71526;-69
2022/09/07 10:02:40;;;;;;;5.70;4.80;;;;;;;22.24;55.95;97781.66;110120;1247;69228;-68
2022/09/07 10:05:41;;;;;;;5.10;4.30;;;;;;;23.36;55.24;97785.45;110057;1247;68615;-70
2022/09/07 10:08:28;;;;;;;6.90;5.10;;;;;;;23.17;53.51;97788.91;110090;1247;59689;-69
2022/09/07 10:10:59;;;;;;;4.90;3.90;;;;;;;22.53;56.08;97790.52;110074;1247;60112;-70
2022/09/07 10:13:30;;;;;;;6.10;5.10;;;;;;;22.40;55.98;97788.08;110094;1247;71422;-70
2022/09/07 10:16:03;;;;;;;4.20;3.40;;;;;;;22.36;56.09;97786.66;110081;1247;68925;-70
2022/09/07 10:18:55;;;;;;;4.70;4.00;;;;;;;22.07;56.25;97790.80;110038;1247;69475;-70
2022/09/07 10:21:30;;;;;;;5.60;4.80;;;;;;;21.51;58.08;97787.65;110055;1247;59684;-68
2022/09/07 10:24:05;;;;;;;5.60;4.90;;;;;;;21.74;58.03;97782.84;110100;1247;59753;-69
2022/09/07 10:26:36;;;;;;;5.80;5.10;;;;;;;21.75;57.17;97778.84;110098;1247;70573;-71
2022/09/07 10:29:27;;;;;;;5.70;5.10;;;;;;;21.64;57.37;97775.67;110099;1247;69609;-70
2022/09/07 10:32:08;;;;;;;5.90;4.90;;;;;;;20.95;58.56;97769.53;110057;1247;68654;-70
2022/09/07 10:34:46;;;;;;;6.70;4.90;;;;;;;20.04;60.42;97766.58;110036;1247;59705;-69
2022/09/07 10:37:23;;;;;;;6.90;5.10;;;;;;;20.48;59.98;97762.87;110035;1247;59698;-68
2022/09/07 10:40:01;;;;;;;4.80;4.30;;;;;;;20.47;60.14;97764.61;110116;1247;71357;-71
2022/09/07 10:42:34;;;;;;;7.00;5.60;;;;;;;20.33;61.61;97768.22;110083;1247;69309;-70
2022/09/07 10:45:15;;;;;;;7.00;5.50;;;;;;;20.19;62.09;97770.94;110078;1247;68733;-68
2022/09/07 10:47:55;;;;;;;5.70;5.00;;;;;;;20.19;62.56;97777.85;110101;1247;59777;-69
2022/09/07 10:50:47;;;;;;;6.10;5.50;;;;;;;20.05;62.09;97776.00;110095;1247;59701;-69
2022/09/07 10:53:22;;;;;;;6.10;5.50;;;;;;;20.27;61.70;97771.30;110015;1247;70800;-68
2022/09/07 10:56:33;;;;;;;5.20;4.70;;;;;;;20.35;61.09;97768.25;109787;1247;68601;-70
2022/09/07 10:59:34;;;;;;;6.70;5.40;;;;;;;20.30;61.90;97765.97;110034;1247;69995;-70
2022/09/07 11:02:57;;;;;;;5.90;5.30;;;;;;;20.34;61.37;97764.27;110061;1247;59754;-70
2022/09/07 11:06:04;;;;;;;6.20;5.60;;;;;;;20.23;61.76;97765.91;110052;1247;59730;-69
2022/09/07 11:09:10;;;;;;;5.40;4.90;;;;;;;19.98;62.53;97767.52;110087;1247;70872;-70
2022/09/07 11:12:04;;;;;;;6.10;5.30;;;;;;;19.94;62.33;97766.71;110037;1247;68795;-69
2022/09/07 11:14:44;;;;;;;5.20;4.70;;;;;;;19.93;62.76;97762.57;110016;1247;69279;-69
2022/09/07 11:17:26;;;;;;;5.40;4.90;;;;;;;20.00;61.49;97759.27;110045;1247;59758;-69
2022/09/07 11:20:07;;;;;;;4.80;4.40;;;;;;;19.94;62.05;97761.65;110113;1246;59743;-71
2022/09/07 11:23:47;;;;;;;4.80;3.90;;;;;;;20.34;60.60;97761.05;110087;1246;70802;-70
2022/09/07 11:26:36;;;;;;;6.60;4.90;;;;;;;20.42;61.20;97757.90;108803;1257;68553;-69
2022/09/07 11:29:29;;;;;;;6.10;5.00;;;;;;;20.46;60.77;97747.06;109969;1247;68403;-68
2022/09/07 11:32:30;;;;;;;5.90;5.30;;;;;;;20.36;61.37;97747.71;110297;1246;59687;-68
2022/09/07 11:35:19;;;;;;;6.20;4.80;;;;;;;20.04;62.90;97748.48;110103;1247;59694;-69
2022/09/07 11:37:58;;;;;;;5.30;4.20;;;;;;;20.33;62.37;97741.67;110099;1247;71348;-70
2022/09/07 11:40:41;;;;;;;4.90;4.30;;;;;;;20.70;61.35;97735.63;110042;1247;68372;-71
2022/09/07 11:43:21;;;;;;;5.00;4.20;;;;;;;20.94;60.22;97731.58;110084;1247;68549;-69
2022/09/07 11:45:56;;;;;;;6.40;5.50;;;;;;;21.24;60.10;97732.66;110029;1247;59705;-70
2022/09/07 11:48:32;;;;;;;6.90;5.40;;;;;;;21.32;59.97;97738.87;109972;1247;59742;-72
2022/09/07 11:51:08;;;;;;;6.30;5.70;;;;;;;21.11;60.60;97733.56;110113;1247;70805;-71
2022/09/07 11:53:44;;;;;;;6.80;5.50;;;;;;;20.98;60.99;97735.05;110229;1247;69253;-69
2022/09/07 11:56:20;;;;;;;4.70;4.20;;;;;;;20.85;60.98;97730.23;110122;1247;68643;-71
2022/09/07 11:59:14;;;;;;;6.30;5.20;;;;;;;20.87;60.51;97728.92;110096;1247;59758;-69
2022/09/07 12:01:52;;;;;;;5.00;4.30;;;;;;;20.66;60.64;97724.16;110120;1247;59669;-71
2022/09/07 12:05:09;;;;;;;5.60;4.80;;;;;;;20.40;60.98;97726.85;110030;1247;71598;-69
2022/09/07 12:08:04;;;;;;;4.80;4.20;;;;;;;20.13;63.47;97728.24;109264;1256;69434;-69
2022/09/07 12:11:02;;;;;;;6.00;5.40;;;;;;;20.10;64.06;97725.19;109960;1250;68627;-69